Hualapai Flat, Nevada Weather observations

Data are for 10 minute period ending at time listed.
 Day   Time   Solar   Ave.   Ave.  Ave.  Vector  Max.   Baro.   Total    
  of    of     Rad.   Air    Rel.  Wind   Wind   Wind  Press.  Precip.   
Year   Day            Temp.  Hum.  Speed  Dir.   Gust                    
2015   (PST)  Kw/m2    F      %     mph   deg.    mph    mb.     in.     
-------------------------------------------------------------------------
 148    2:30   100.00  99999.0   99999  99999.0   99999   99999.0   99999.0   99999.00 
 148    2:40   100.00  99999.0   99999  99999.0   99999   99999.0   99999.0   99999.00 
 148    2:50   100.00  99999.0   99999  99999.0   99999   99999.0   99999.0   99999.00 
 148    3:00   100.00  99999.0   99999  99999.0   99999   99999.0   99999.0   99999.00 
 148    3:10   100.00  99999.0   99999  99999.0   99999   99999.0   99999.0   99999.00 
 148    3:20   100.00  99999.0   99999  99999.0   99999   99999.0   99999.0   99999.00 
 148    3:30   100.00  99999.0   99999  99999.0   99999   99999.0   99999.0   99999.00 
 148    3:40   100.00  99999.0   99999  99999.0   99999   99999.0   99999.0   99999.00 
 148    3:50   100.00  99999.0   99999  99999.0   99999   99999.0   99999.0   99999.00 
 148    4:00   100.00  99999.0   99999  99999.0   99999   99999.0   99999.0   99999.00 
 148    4:10   100.00  99999.0   99999  99999.0   99999   99999.0   99999.0   99999.00 
 148    4:20   100.00  99999.0   99999  99999.0   99999   99999.0   99999.0   99999.00 
 148    4:30   100.00  99999.0   99999  99999.0   99999   99999.0   99999.0   99999.00 
 148    4:40   100.00  99999.0   99999  99999.0   99999   99999.0   99999.0   99999.00 
 148    4:50   100.00  99999.0   99999  99999.0   99999   99999.0   99999.0   99999.00 
 148    5:00   100.00  99999.0   99999  99999.0   99999   99999.0   99999.0   99999.00 
 148    5:10   100.00  99999.0   99999  99999.0   99999   99999.0   99999.0   99999.00 
 148    5:20   100.00  99999.0   99999  99999.0   99999   99999.0   99999.0   99999.00 
 148    5:30   100.00  99999.0   99999  99999.0   99999   99999.0   99999.0   99999.00 
 148    5:40   100.00  99999.0   99999  99999.0   99999   99999.0   99999.0   99999.00 
 148    5:50   100.00  99999.0   99999  99999.0   99999   99999.0   99999.0   99999.00 
 148    6:00   100.00  99999.0   99999  99999.0   99999   99999.0   99999.0   99999.00 
 148    6:10   100.00  99999.0   99999  99999.0   99999   99999.0   99999.0   99999.00 
 148    6:20   100.00  99999.0   99999  99999.0   99999   99999.0   99999.0   99999.00 
 148    6:30   100.00  99999.0   99999  99999.0   99999   99999.0   99999.0   99999.00 
 148    6:40   100.00  99999.0   99999  99999.0   99999   99999.0   99999.0   99999.00 
 148    6:50   100.00  99999.0   99999  99999.0   99999   99999.0   99999.0   99999.00 
 148    7:00   100.00  99999.0   99999  99999.0   99999   99999.0   99999.0   99999.00 
 148    7:10   100.00  99999.0   99999  99999.0   99999   99999.0   99999.0   99999.00 
 148    7:20   100.00  99999.0   99999  99999.0   99999   99999.0   99999.0   99999.00 
 148    7:30   100.00  99999.0   99999  99999.0   99999   99999.0   99999.0   99999.00 
 148    7:40   100.00  99999.0   99999  99999.0   99999   99999.0   99999.0   99999.00 
 148    7:50   100.00  99999.0   99999  99999.0   99999   99999.0   99999.0   99999.00 
 148    8:00   100.00  99999.0   99999  99999.0   99999   99999.0   99999.0   99999.00 
 148    8:10   100.00  99999.0   99999  99999.0   99999   99999.0   99999.0   99999.00 
 148    8:20   100.00  99999.0   99999  99999.0   99999   99999.0   99999.0   99999.00 
 148    8:30   100.00  99999.0   99999  99999.0   99999   99999.0   99999.0   99999.00 
 148    8:40   100.00  99999.0   99999  99999.0   99999   99999.0   99999.0   99999.00 
 148    8:50   100.00  99999.0   99999  99999.0   99999   99999.0   99999.0   99999.00 
 148    9:00   100.00  99999.0   99999  99999.0   99999   99999.0   99999.0   99999.00 
 148    9:10   100.00  99999.0   99999  99999.0   99999   99999.0   99999.0   99999.00 
 148    9:20   100.00  99999.0   99999  99999.0   99999   99999.0   99999.0   99999.00 
 148    9:30   100.00  99999.0   99999  99999.0   99999   99999.0   99999.0   99999.00 
 148    9:40   100.00  99999.0   99999  99999.0   99999   99999.0   99999.0   99999.00 
 148    9:50   100.00  99999.0   99999  99999.0   99999   99999.0   99999.0   99999.00 
 148   10:00   100.00  99999.0   99999  99999.0   99999   99999.0   99999.0   99999.00 
 148   10:10   100.00  99999.0   99999  99999.0   99999   99999.0   99999.0   99999.00 
 148   10:20   100.00  99999.0   99999  99999.0   99999   99999.0   99999.0   99999.00 
 148   10:30   100.00  99999.0   99999  99999.0   99999   99999.0   99999.0   99999.00 
 148   10:40   100.00  99999.0   99999  99999.0   99999   99999.0   99999.0   99999.00 
 148   10:50   100.00  99999.0   99999  99999.0   99999   99999.0   99999.0   99999.00 
 148   11:00   100.00  99999.0   99999  99999.0   99999   99999.0   99999.0   99999.00 
 148   11:10   100.00  99999.0   99999  99999.0   99999   99999.0   99999.0   99999.00 
 148   11:20   100.00  99999.0   99999  99999.0   99999   99999.0   99999.0   99999.00 
 148   11:30   100.00  99999.0   99999  99999.0   99999   99999.0   99999.0   99999.00 
 148   11:40   100.00  99999.0   99999  99999.0   99999   99999.0   99999.0   99999.00 
 148   11:50   100.00  99999.0   99999  99999.0   99999   99999.0   99999.0   99999.00 
 148   12:00   100.00  99999.0   99999  99999.0   99999   99999.0   99999.0   99999.00 
 148   12:10   100.00  99999.0   99999  99999.0   99999   99999.0   99999.0   99999.00 
 148   12:20   100.00  99999.0   99999  99999.0   99999   99999.0   99999.0   99999.00 
 148   12:30   100.00  99999.0   99999  99999.0   99999   99999.0   99999.0   99999.00 
 148   12:40   100.00  99999.0   99999  99999.0   99999   99999.0   99999.0   99999.00 
 148   12:50   100.00  99999.0   99999  99999.0   99999   99999.0   99999.0   99999.00 
 148   13:00   100.00  99999.0   99999  99999.0   99999   99999.0   99999.0   99999.00 
 148   13:10   100.00  99999.0   99999  99999.0   99999   99999.0   99999.0   99999.00 
 148   13:20   100.00  99999.0   99999  99999.0   99999   99999.0   99999.0   99999.00 
 148   13:30   100.00  99999.0   99999  99999.0   99999   99999.0   99999.0   99999.00 
 148   13:40   100.00  99999.0   99999  99999.0   99999   99999.0   99999.0   99999.00 
 148   13:50   100.00  99999.0   99999  99999.0   99999   99999.0   99999.0   99999.00 
 148   14:00   100.00  99999.0   99999  99999.0   99999   99999.0   99999.0   99999.00 
 148   14:10   100.00  99999.0   99999  99999.0   99999   99999.0   99999.0   99999.00 
 148   14:20   100.00  99999.0   99999  99999.0   99999   99999.0   99999.0   99999.00 
 148   14:30   0.50   75.4    28    3.4   126     9.3   876.1    0.00 
 148   14:40   0.53   76.4    39    4.1   155     8.1   876.1    0.00 
 148   14:50   0.69   79.1    29    4.6   191    10.3   876.0    0.00 
 148   15:00   0.59   81.3    27    2.5   195     6.4   875.9    0.00 
 148   15:10   0.54   79.8    29    4.7   138    10.0   875.8    0.00 
 148   15:20   100.00  99999.0   99999  99999.0   99999   99999.0   99999.0   99999.00 
 148   15:30   0.56   80.6    26    2.6   224     9.3   875.7    0.00 
 148   15:40   0.60   80.9    28    2.7   146     5.5   875.7    0.00 
 148   15:50   0.33   80.1    30    4.3   175     7.2   875.5    0.00 
 148   16:00   0.54   80.7    24    2.7   257     7.8   875.5    0.00 
 148   16:10   0.49   79.5    29    5.1   157     9.3   875.5    0.00 
 148   16:20   0.34   75.3    32    5.4   126    10.9   875.5    0.00 
 148   16:30   0.33   76.2    29    3.6   133     9.4   875.5    0.00 
 148   16:40   0.17   75.4    32    5.3   166     8.5   875.4    0.00 
 148   16:50   0.21   74.5    34    3.7   158     6.1   875.4    0.00 
 148   17:00   0.30   73.9    37    3.8   146     6.6   875.4    0.00 
 148   17:10   0.33   75.2    35    4.3   132     8.1   875.5    0.00 
 148   17:20   0.17   75.7    33    4.8   169     6.6   875.4    0.00 
 148   17:30   0.14   74.5    35    3.7   188     5.5   875.5    0.00 
 148   17:40   0.20   74.2    39    3.5   163     5.3   875.6    0.00 
 148   17:50   0.16   76.5    39    2.4   178     3.7   875.6    0.00 
 148   18:00   0.12   77.9    36    2.9   184     3.4   875.6    0.00 
 148   18:10   0.07   75.8    34    3.0   179     4.2   875.6    0.00 
 148   18:20   0.11   74.0    34    2.6   178     3.1   875.6    0.00 
 148   18:30   0.06   73.9    32    2.7   183     3.3   875.6    0.00 
 148   18:40   0.05   73.0    32    2.2   189     2.6   875.6    0.00 
 148   18:50   0.02   71.6    30    2.4   167     3.3   875.7    0.00 
 148   19:00   0.02   69.9    30    1.6   178     2.1   875.7    0.00 
 148   19:10   0.01   68.7    30    2.2   191     4.3   875.8    0.00 
 148   19:20   0.01   68.4    30    2.4   192     3.9   875.9    0.00 
 148   19:30   0.00   68.0    30    1.6   205     5.9   876.0    0.00 
 148   19:40   0.00   65.7    38    4.8   295     6.4   876.0    0.00 
 148   19:50   0.00   66.0    36    4.9   298     6.4   876.1    0.00 
 148   20:00   0.00   65.0    38    5.9   297     6.8   876.1    0.00 
 148   20:10   0.00   64.1    40    6.3   304     7.0   876.2    0.00 
 148   20:20   0.00   63.6    40    6.5   304     7.2   876.3    0.00 
 148   20:30   0.00   63.6    40    6.5   300     7.5   876.3    0.00 
 148   20:40   0.00   63.8    38    6.4   289     7.6   876.3    0.00 
 148   20:50   0.00   63.3    39    6.3   288     8.0   876.4    0.00 
 148   21:00   0.00   62.4    41    6.3   290     7.8   876.4    0.00 
 148   21:10   0.00   61.0    44    6.6   293     7.6   876.5    0.00 
 148   21:20   0.00   60.6    44    7.2   297     8.3   876.7    0.00 
 148   21:30   0.00   61.6    42    6.7   297     8.7   876.7    0.00 
 148   21:40   0.00   60.8    44    6.6   305     8.6   876.7    0.00 
 148   21:50   0.00   61.0    44    6.0   297     7.8   876.7    0.00 
 148   22:00   0.00   61.1    44    6.8   315     8.5   876.7    0.00 
 148   22:10   0.00   61.7    43    6.9   304     8.4   876.6    0.00 
 148   22:20   0.00   63.0    40    6.2   304     7.8   876.7    0.00 
 148   22:30   0.00   62.8    42    6.2   326     8.1   876.7    0.00 
 148   22:40   0.00   61.4    48    5.3   352     7.0   876.7    0.00 
 148   22:50   0.00   60.5    49    4.4   356     5.0   876.7    0.00 
 148   23:00   0.00   59.7    51    4.1   357     4.5   876.8    0.00 
 148   23:10   0.00   59.7    51    4.4   311     5.5   876.8    0.00 
 148   23:20   0.00   60.7    48    5.6   302     6.4   876.7    0.00 
 148   23:30   0.00   60.6    49    4.0   320     5.7   876.7    0.00 
 148   23:40   0.00   59.4    51    3.3    33     8.4   877.0    0.00 
 148   23:50   0.00   61.0    46    3.3   335     5.6   877.0    0.00 
 149    0:00   0.00   62.7    42    3.2   267     4.2   877.0    0.00 
 149    0:10   0.00   61.8    45    2.7   218     4.0   877.1    0.00 
 149    0:20   0.00   58.8    52    2.0   303     4.4   877.1    0.00 
 149    0:30   0.00   59.7    48    3.5   259     5.0   877.1    0.00 
 149    0:40   0.00   58.1    51    3.8   260     4.8   877.1    0.00 
 149    0:50   0.00   58.5    50    4.5   225     6.0   877.1    0.00 
 149    1:00   0.00   57.2    53    4.0   203     5.7   877.2    0.00 
 149    1:10   0.00   56.7    54    4.2   202     5.0   877.2    0.00 
 149    1:20   0.00   56.6    55    4.9   207     5.8   877.2    0.00 
 149    1:30   0.00   56.1    55    3.1   195     4.6   877.3    0.00 
 149    1:40   0.00   56.5    55    4.8   203     6.6   877.2    0.00 
 149    1:50   0.00   56.9    55    2.4   190     4.1   877.2    0.00 
 149    2:00   0.00   56.0    58    3.4    23     5.3   877.3    0.00 
 149    2:10   0.00   53.5    64    3.8     2     6.0   877.3    0.00 
 149    2:20   0.00   52.5    66    4.4   349     5.7   877.2    0.00 

Return to Hualapai Flat graphs page.


Western Regional Climate Center,wrcc@dri.edu